Time;durP1;ratioP1;P1;durP2;ratioP2;P2;SDS_P1;SDS_P2;PMS_P1;PMS_P2;Temp;Humidity;BMP_temperature;BMP_pressure;BME280_temperature;BME280_humidity;BME280_pressure;Samples;Min_cycle;Max_cycle;Signal;HPM_P1;HPM_P2
2023/07/26 00:01:11;;;;;;;0.10;0.10;;;;;;;;;;5078308;28;20080;-59
2023/07/26 00:03:38;;;;;;;0.05;0.05;;;;;;;;;;5076631;28;20047;-58
2023/07/26 00:06:06;;;;;;;0.10;0.10;;;;;;;;;;5078864;28;20170;-59
2023/07/26 00:08:33;;;;;;;0.10;0.10;;;;;;;;;;5077663;28;20113;-59
2023/07/26 00:11:00;;;;;;;0.20;0.20;;;;;;;;;;5079336;28;20067;-58
2023/07/26 00:13:27;;;;;;;0.10;0.10;;;;;;;;;;5078684;28;20047;-58
2023/07/26 00:15:54;;;;;;;0.10;0.10;;;;;;;;;;5078162;28;20445;-58
2023/07/26 00:18:23;;;;;;;0.10;0.10;;;;;;;;;;5079111;28;20125;-58
2023/07/26 00:20:50;;;;;;;0.17;0.17;;;;;;;;;;5077819;28;20064;-58
2023/07/26 00:23:17;;;;;;;0.10;0.10;;;;;;;;;;5078022;28;20036;-58
2023/07/26 00:25:44;;;;;;;0.10;0.10;;;;;;;;;;5078450;28;20044;-59
2023/07/26 00:28:11;;;;;;;0.10;0.10;;;;;;;;;;5080420;28;20467;-58
2023/07/26 00:30:38;;;;;;;0.10;0.10;;;;;;;;;;5078349;28;20071;-58
2023/07/26 00:33:05;;;;;;;0.10;0.10;;;;;;;;;;5077033;28;20044;-58
2023/07/26 00:35:35;;;;;;;0.10;0.10;;;;;;;;;;5077059;28;20072;-59
2023/07/26 00:38:02;;;;;;;0.10;0.10;;;;;;;;;;5080454;28;20046;-58
2023/07/26 00:40:29;;;;;;;0.10;0.10;;;;;;;;;;5079361;28;20055;-57
2023/07/26 00:42:56;;;;;;;0.17;0.17;;;;;;;;;;5079352;28;20044;-58
2023/07/26 00:45:23;;;;;;;0.10;0.10;;;;;;;;;;5079916;28;20059;-57
2023/07/26 00:47:50;;;;;;;0.10;0.10;;;;;;;;;;5074727;28;20127;-58
2023/07/26 00:50:17;;;;;;;0.10;0.10;;;;;;;;;;5075801;28;20041;-58
2023/07/26 00:52:46;;;;;;;0.10;0.10;;;;;;;;;;5079435;28;20631;-59
2023/07/26 00:55:13;;;;;;;0.10;0.10;;;;;;;;;;5076947;28;20046;-59
2023/07/26 00:57:40;;;;;;;0.10;0.10;;;;;;;;;;5076006;28;20068;-57
2023/07/26 01:00:08;;;;;;;0.10;0.10;;;;;;;;;;5076246;28;20195;-58
2023/07/26 01:02:35;;;;;;;0.10;0.10;;;;;;;;;;5073704;28;20502;-59
2023/07/26 01:05:02;;;;;;;0.10;0.10;;;;;;;;;;5078578;28;20047;-57
2023/07/26 01:07:37;;;;;;;0.20;0.20;;;;;;;;;;5078191;28;20056;-59
2023/07/26 01:10:09;;;;;;;0.03;0.03;;;;;;;;;;5078090;28;20055;-59
2023/07/26 01:12:38;;;;;;;0.10;0.10;;;;;;;;;;5075880;28;20062;-59
2023/07/26 01:15:07;;;;;;;0.10;0.10;;;;;;;;;;5079953;28;20091;-59
2023/07/26 01:17:38;;;;;;;0.10;0.10;;;;;;;;;;5079151;28;20159;-60
2023/07/26 01:20:07;;;;;;;0.00;0.00;;;;;;;;;;5075461;28;20678;-59
2023/07/26 01:22:36;;;;;;;0.10;0.10;;;;;;;;;;5076270;28;20591;-59
2023/07/26 01:25:03;;;;;;;0.10;0.10;;;;;;;;;;5081676;28;20044;-59
2023/07/26 01:27:30;;;;;;;0.10;0.10;;;;;;;;;;5080548;28;20051;-59
2023/07/26 01:29:57;;;;;;;0.10;0.10;;;;;;;;;;5078371;28;20047;-59
2023/07/26 01:32:24;;;;;;;0.10;0.10;;;;;;;;;;5073827;28;20127;-59
2023/07/26 01:34:52;;;;;;;0.10;0.10;;;;;;;;;;5075056;28;20044;-59
2023/07/26 01:37:19;;;;;;;0.10;0.10;;;;;;;;;;5075911;28;20130;-57
2023/07/26 01:39:49;;;;;;;0.10;0.10;;;;;;;;;;5056207;28;20129;-58
2023/07/26 01:42:16;;;;;;;0.03;0.03;;;;;;;;;;5075060;28;20051;-57
2023/07/26 01:44:43;;;;;;;0.10;0.10;;;;;;;;;;5078343;28;20044;-58
2023/07/26 01:47:10;;;;;;;0.10;0.10;;;;;;;;;;5078305;28;20479;-58
2023/07/26 01:49:37;;;;;;;0.10;0.10;;;;;;;;;;5077810;28;20041;-58
2023/07/26 01:52:07;;;;;;;0.10;0.10;;;;;;;;;;5080352;28;20036;-58
2023/07/26 01:54:34;;;;;;;0.10;0.10;;;;;;;;;;5081519;28;20037;-58
2023/07/26 01:57:02;;;;;;;0.10;0.10;;;;;;;;;;5077627;28;20148;-58
2023/07/26 01:59:30;;;;;;;0.10;0.10;;;;;;;;;;5076575;28;20097;-58
2023/07/26 02:01:57;;;;;;;0.10;0.10;;;;;;;;;;5076253;28;20090;-58
2023/07/26 02:04:25;;;;;;;0.03;0.03;;;;;;;;;;5079396;28;20040;-58
2023/07/26 02:06:52;;;;;;;0.10;0.10;;;;;;;;;;5063423;28;20094;-58
2023/07/26 02:09:19;;;;;;;0.10;0.10;;;;;;;;;;5077245;28;20063;-58
2023/07/26 02:11:46;;;;;;;0.10;0.10;;;;;;;;;;5092285;28;20597;-59
2023/07/26 02:14:16;;;;;;;0.10;0.10;;;;;;;;;;5079824;28;20559;-58
2023/07/26 02:16:43;;;;;;;0.03;0.03;;;;;;;;;;5078567;28;20071;-57
2023/07/26 02:19:11;;;;;;;0.10;0.10;;;;;;;;;;5083969;28;20134;-58
2023/07/26 02:21:38;;;;;;;0.10;0.10;;;;;;;;;;5078356;28;20055;-58
2023/07/26 02:24:05;;;;;;;0.15;0.15;;;;;;;;;;5077862;28;20075;-58
2023/07/26 02:26:33;;;;;;;0.20;0.20;;;;;;;;;;5079910;28;20048;-58
2023/07/26 02:29:00;;;;;;;0.20;0.20;;;;;;;;;;5068279;28;20051;-58
2023/07/26 02:31:28;;;;;;;0.10;0.10;;;;;;;;;;5081839;28;20049;-58
2023/07/26 02:33:55;;;;;;;0.10;0.10;;;;;;;;;;5075905;28;20060;-58
2023/07/26 02:36:23;;;;;;;0.10;0.10;;;;;;;;;;5081917;28;20041;-57
2023/07/26 02:38:50;;;;;;;0.10;0.10;;;;;;;;;;5081038;28;20045;-58
2023/07/26 02:41:17;;;;;;;0.10;0.10;;;;;;;;;;5079623;28;20039;-58
2023/07/26 02:43:44;;;;;;;0.20;0.20;;;;;;;;;;5077430;28;20052;-59
2023/07/26 02:46:11;;;;;;;0.20;0.20;;;;;;;;;;5080384;28;20647;-58
2023/07/26 02:48:40;;;;;;;0.10;0.10;;;;;;;;;;5077728;28;20048;-59
2023/07/26 02:51:07;;;;;;;0.10;0.10;;;;;;;;;;5079081;28;20044;-59
2023/07/26 02:53:34;;;;;;;0.10;0.10;;;;;;;;;;5084185;28;20498;-58
2023/07/26 02:56:01;;;;;;;0.10;0.10;;;;;;;;;;5078896;28;20032;-59
2023/07/26 02:58:28;;;;;;;0.10;0.10;;;;;;;;;;5081279;28;20048;-58
2023/07/26 03:00:55;;;;;;;0.10;0.10;;;;;;;;;;5084350;28;20051;-59
2023/07/26 03:03:22;;;;;;;0.20;0.20;;;;;;;;;;5082822;28;20075;-59
2023/07/26 03:05:51;;;;;;;0.10;0.10;;;;;;;;;;5080353;28;20200;-58
2023/07/26 03:08:18;;;;;;;0.20;0.20;;;;;;;;;;5074575;28;20127;-58
2023/07/26 03:10:46;;;;;;;0.17;0.17;;;;;;;;;;5078788;28;20490;-58
2023/07/26 03:13:13;;;;;;;0.10;0.10;;;;;;;;;;5079547;28;20039;-58
2023/07/26 03:15:40;;;;;;;0.10;0.10;;;;;;;;;;5082255;28;20140;-58
2023/07/26 03:18:07;;;;;;;0.10;0.10;;;;;;;;;;5079679;28;20448;-58
2023/07/26 03:20:34;;;;;;;0.20;0.20;;;;;;;;;;5077935;28;20040;-59
2023/07/26 03:23:03;;;;;;;0.10;0.10;;;;;;;;;;5078626;28;20143;-59
2023/07/26 03:25:30;;;;;;;0.10;0.10;;;;;;;;;;5075757;28;20489;-58
2023/07/26 03:27:57;;;;;;;0.20;0.20;;;;;;;;;;5075818;28;20338;-58
2023/07/26 03:30:24;;;;;;;0.10;0.10;;;;;;;;;;5081930;28;20117;-59
2023/07/26 03:32:51;;;;;;;0.20;0.20;;;;;;;;;;5075701;28;20036;-58
2023/07/26 03:35:18;;;;;;;0.10;0.10;;;;;;;;;;5082167;28;20133;-58
2023/07/26 03:37:45;;;;;;;0.10;0.10;;;;;;;;;;5080164;28;20078;-58
2023/07/26 03:40:16;;;;;;;0.17;0.17;;;;;;;;;;5076602;28;20102;-59
2023/07/26 03:42:43;;;;;;;0.10;0.10;;;;;;;;;;5079729;28;20058;-59
2023/07/26 03:45:11;;;;;;;0.15;0.15;;;;;;;;;;5077938;28;20127;-59
2023/07/26 03:47:38;;;;;;;0.10;0.10;;;;;;;;;;5079265;28;20048;-58
2023/07/26 03:50:06;;;;;;;0.20;0.20;;;;;;;;;;5078899;28;20047;-59
2023/07/26 03:52:33;;;;;;;0.10;0.10;;;;;;;;;;5082287;28;20379;-59
2023/07/26 03:55:00;;;;;;;0.10;0.10;;;;;;;;;;5082030;28;20922;-58
2023/07/26 03:57:29;;;;;;;0.10;0.10;;;;;;;;;;5078690;28;20170;-58
2023/07/26 03:59:56;;;;;;;0.13;0.13;;;;;;;;;;5079795;28;20531;-58
2023/07/26 04:02:23;;;;;;;0.10;0.10;;;;;;;;;;5080217;28;20039;-58
2023/07/26 04:04:50;;;;;;;0.20;0.20;;;;;;;;;;5078478;28;20162;-58
2023/07/26 04:07:17;;;;;;;0.10;0.10;;;;;;;;;;5075087;28;20066;-58
2023/07/26 04:09:44;;;;;;;0.10;0.10;;;;;;;;;;5075812;28;20044;-58
2023/07/26 04:12:11;;;;;;;0.20;0.20;;;;;;;;;;5078940;28;20048;-57
2023/07/26 04:14:40;;;;;;;0.15;0.15;;;;;;;;;;5077790;28;20040;-58
2023/07/26 04:17:07;;;;;;;0.10;0.10;;;;;;;;;;5076666;28;20488;-57
2023/07/26 04:19:34;;;;;;;0.10;0.10;;;;;;;;;;5078173;28;20033;-57
2023/07/26 04:22:01;;;;;;;0.20;0.20;;;;;;;;;;5077618;28;20040;-58
2023/07/26 04:24:28;;;;;;;0.20;0.20;;;;;;;;;;5079582;28;20036;-58
2023/07/26 04:26:55;;;;;;;0.10;0.10;;;;;;;;;;5077084;28;20036;-58
2023/07/26 04:29:22;;;;;;;0.10;0.10;;;;;;;;;;5077466;28;20048;-59
2023/07/26 04:31:51;;;;;;;0.20;0.20;;;;;;;;;;5079631;28;20058;-58
2023/07/26 04:34:18;;;;;;;0.10;0.10;;;;;;;;;;5080653;28;20089;-58
2023/07/26 04:36:45;;;;;;;0.13;0.13;;;;;;;;;;5084753;28;20391;-58
2023/07/26 04:39:12;;;;;;;0.10;0.10;;;;;;;;;;5079055;28;20044;-57
2023/07/26 04:41:39;;;;;;;0.10;0.10;;;;;;;;;;5078042;28;20070;-58
2023/07/26 04:44:07;;;;;;;0.10;0.10;;;;;;;;;;5078733;28;20166;-59
2023/07/26 04:46:34;;;;;;;0.10;0.10;;;;;;;;;;5077495;28;20043;-57
2023/07/26 04:49:02;;;;;;;0.10;0.10;;;;;;;;;;5077446;28;20490;-59
2023/07/26 04:51:30;;;;;;;0.10;0.10;;;;;;;;;;5084014;28;20537;-59
2023/07/26 04:53:57;;;;;;;0.20;0.20;;;;;;;;;;5078749;28;20504;-60
2023/07/26 04:56:26;;;;;;;0.15;0.15;;;;;;;;;;5077523;28;20047;-57
2023/07/26 04:59:01;;;;;;;0.10;0.10;;;;;;;;;;5077892;28;20091;-59
2023/07/26 05:01:31;;;;;;;0.10;0.10;;;;;;;;;;5072822;28;20058;-59
2023/07/26 05:03:58;;;;;;;0.10;0.10;;;;;;;;;;5075691;28;20067;-58
2023/07/26 05:06:27;;;;;;;0.20;0.20;;;;;;;;;;5080440;28;20545;-58
2023/07/26 05:08:54;;;;;;;0.10;0.10;;;;;;;;;;5078007;28;20048;-58
2023/07/26 05:11:22;;;;;;;0.10;0.10;;;;;;;;;;5079982;28;20046;-57
2023/07/26 05:13:49;;;;;;;0.10;0.10;;;;;;;;;;5078249;28;20050;-57
2023/07/26 05:16:17;;;;;;;0.20;0.20;;;;;;;;;;5079532;28;20139;-59
2023/07/26 05:18:47;;;;;;;0.10;0.10;;;;;;;;;;5076660;28;20070;-59
2023/07/26 05:21:17;;;;;;;0.20;0.20;;;;;;;;;;5078531;28;20048;-58
2023/07/26 05:23:46;;;;;;;0.10;0.10;;;;;;;;;;5072277;28;20056;-59
2023/07/26 05:26:13;;;;;;;0.10;0.10;;;;;;;;;;5069559;28;20127;-58
2023/07/26 05:28:41;;;;;;;0.10;0.10;;;;;;;;;;5074802;28;20142;-58
2023/07/26 05:31:08;;;;;;;0.13;0.13;;;;;;;;;;5071921;28;20052;-58
2023/07/26 05:33:35;;;;;;;0.20;0.20;;;;;;;;;;5069744;28;20036;-58
2023/07/26 05:36:02;;;;;;;0.10;0.10;;;;;;;;;;5076110;28;20405;-58
2023/07/26 05:38:34;;;;;;;0.20;0.20;;;;;;;;;;5076103;28;20054;-58
2023/07/26 05:41:06;;;;;;;0.20;0.20;;;;;;;;;;5079503;28;20067;-58
2023/07/26 05:43:37;;;;;;;0.10;0.10;;;;;;;;;;5074231;28;20045;-58
2023/07/26 05:46:06;;;;;;;0.10;0.10;;;;;;;;;;5077190;28;20052;-59
2023/07/26 05:48:36;;;;;;;0.10;0.10;;;;;;;;;;5078316;28;20046;-59
2023/07/26 05:51:03;;;;;;;0.10;0.10;;;;;;;;;;5078947;28;20055;-59
2023/07/26 05:53:30;;;;;;;0.10;0.10;;;;;;;;;;5075872;28;20548;-58
2023/07/26 05:55:57;;;;;;;0.10;0.10;;;;;;;;;;5079951;28;20040;-59
2023/07/26 05:58:26;;;;;;;0.10;0.10;;;;;;;;;;5079312;28;20463;-58
2023/07/26 06:00:53;;;;;;;0.10;0.10;;;;;;;;;;5077916;28;20048;-60
2023/07/26 06:03:20;;;;;;;0.10;0.10;;;;;;;;;;5080030;28;20044;-59
2023/07/26 06:05:48;;;;;;;0.13;0.13;;;;;;;;;;5081276;28;20102;-58
2023/07/26 06:08:15;;;;;;;0.20;0.20;;;;;;;;;;5081826;28;20677;-59
2023/07/26 06:10:42;;;;;;;0.20;0.20;;;;;;;;;;5080199;28;20126;-58
2023/07/26 06:13:12;;;;;;;0.10;0.10;;;;;;;;;;5077104;28;20044;-58
2023/07/26 06:15:41;;;;;;;0.10;0.10;;;;;;;;;;5083065;28;20053;-58
2023/07/26 06:18:08;;;;;;;0.10;0.10;;;;;;;;;;5082646;28;20068;-58
2023/07/26 06:20:35;;;;;;;0.10;0.10;;;;;;;;;;5077185;28;20104;-58
2023/07/26 06:23:02;;;;;;;0.10;0.10;;;;;;;;;;5079554;28;20494;-57
2023/07/26 06:25:29;;;;;;;0.10;0.10;;;;;;;;;;5080872;28;20076;-58
2023/07/26 06:27:59;;;;;;;0.10;0.10;;;;;;;;;;5079172;28;20072;-58
2023/07/26 06:30:26;;;;;;;0.10;0.10;;;;;;;;;;5078443;28;20676;-58
2023/07/26 06:32:55;;;;;;;0.20;0.20;;;;;;;;;;5078944;28;20164;-56
2023/07/26 06:35:23;;;;;;;0.10;0.10;;;;;;;;;;5080095;28;20063;-59
2023/07/26 06:37:50;;;;;;;0.10;0.10;;;;;;;;;;5078872;28;20072;-58
2023/07/26 06:40:17;;;;;;;0.15;0.15;;;;;;;;;;5074571;28;20039;-58
2023/07/26 06:42:44;;;;;;;0.05;0.05;;;;;;;;;;5082818;28;20048;-59
2023/07/26 06:45:12;;;;;;;0.10;0.10;;;;;;;;;;5082795;28;20042;-58
2023/07/26 06:47:41;;;;;;;0.10;0.10;;;;;;;;;;5084061;28;20549;-58
2023/07/26 06:50:10;;;;;;;0.10;0.10;;;;;;;;;;5080924;28;20537;-59
2023/07/26 06:52:37;;;;;;;0.10;0.10;;;;;;;;;;5083258;28;20131;-58
2023/07/26 06:55:05;;;;;;;0.10;0.10;;;;;;;;;;5077630;28;20105;-59
2023/07/26 06:57:32;;;;;;;0.20;0.20;;;;;;;;;;5080936;28;20102;-59
2023/07/26 07:00:01;;;;;;;0.10;0.10;;;;;;;;;;5076671;28;20060;-61
2023/07/26 07:02:30;;;;;;;0.10;0.10;;;;;;;;;;5074564;28;20522;-60
2023/07/26 07:04:57;;;;;;;0.10;0.10;;;;;;;;;;5082201;28;20032;-59
2023/07/26 07:07:25;;;;;;;0.10;0.10;;;;;;;;;;5082784;28;20490;-58
2023/07/26 07:09:52;;;;;;;0.10;0.10;;;;;;;;;;5078671;28;20586;-58
2023/07/26 07:12:22;;;;;;;0.00;0.00;;;;;;;;;;5081765;28;20054;-58
2023/07/26 07:14:49;;;;;;;0.00;0.00;;;;;;;;;;5095141;28;20044;-59
2023/07/26 07:17:16;;;;;;;0.10;0.10;;;;;;;;;;5079210;28;20039;-57
2023/07/26 07:19:45;;;;;;;0.20;0.20;;;;;;;;;;5078043;28;20055;-57
2023/07/26 07:22:12;;;;;;;0.10;0.10;;;;;;;;;;5083059;28;20055;-57
2023/07/26 07:24:41;;;;;;;0.10;0.10;;;;;;;;;;5080754;28;20051;-57
2023/07/26 07:27:08;;;;;;;0.20;0.20;;;;;;;;;;5080850;28;20040;-57
2023/07/26 07:29:35;;;;;;;0.20;0.20;;;;;;;;;;5081894;28;20072;-58
2023/07/26 07:32:02;;;;;;;0.10;0.10;;;;;;;;;;5079814;28;20076;-56
2023/07/26 07:34:31;;;;;;;0.00;0.00;;;;;;;;;;5081125;28;20044;-58
2023/07/26 07:37:01;;;;;;;0.10;0.10;;;;;;;;;;5076848;28;20394;-57
2023/07/26 07:39:29;;;;;;;0.10;0.10;;;;;;;;;;5074963;28;20071;-57
2023/07/26 07:41:57;;;;;;;0.00;0.00;;;;;;;;;;5082924;28;20506;-58
2023/07/26 07:44:24;;;;;;;0.00;0.00;;;;;;;;;;5077147;28;20126;-57
2023/07/26 07:46:51;;;;;;;0.00;0.00;;;;;;;;;;5081013;28;20055;-57
2023/07/26 07:49:18;;;;;;;0.00;0.00;;;;;;;;;;5072842;28;20042;-57
2023/07/26 07:51:45;;;;;;;0.00;0.00;;;;;;;;;;5079987;28;20036;-57
2023/07/26 07:54:12;;;;;;;0.00;0.00;;;;;;;;;;5078367;28;20047;-58
2023/07/26 07:56:39;;;;;;;0.00;0.00;;;;;;;;;;5080602;28;20036;-57
2023/07/26 07:59:08;;;;;;;0.00;0.00;;;;;;;;;;5082232;28;20059;-57
2023/07/26 08:01:35;;;;;;;0.00;0.00;;;;;;;;;;5076321;28;20160;-57
2023/07/26 08:04:02;;;;;;;0.00;0.00;;;;;;;;;;5078987;28;20044;-57
2023/07/26 08:06:29;;;;;;;0.00;0.00;;;;;;;;;;5079562;28;20063;-57
2023/07/26 08:08:57;;;;;;;0.00;0.00;;;;;;;;;;5074210;28;20131;-57
2023/07/26 08:11:24;;;;;;;0.00;0.00;;;;;;;;;;5079730;28;20073;-58
2023/07/26 08:13:51;;;;;;;0.00;0.00;;;;;;;;;;5075466;28;20058;-57
2023/07/26 08:16:20;;;;;;;0.00;0.00;;;;;;;;;;5080266;28;20048;-59
2023/07/26 08:18:47;;;;;;;0.10;0.10;;;;;;;;;;5078957;28;20052;-59
2023/07/26 08:21:14;;;;;;;0.10;0.10;;;;;;;;;;5080363;28;20062;-59
2023/07/26 08:23:41;;;;;;;0.10;0.10;;;;;;;;;;5078728;28;20139;-57
2023/07/26 08:26:09;;;;;;;0.00;0.00;;;;;;;;;;5076283;28;20048;-61
2023/07/26 08:28:36;;;;;;;0.00;0.00;;;;;;;;;;5079385;28;20056;-58
2023/07/26 08:31:03;;;;;;;0.00;0.00;;;;;;;;;;5075675;28;20090;-58
2023/07/26 08:33:32;;;;;;;0.00;0.00;;;;;;;;;;5080321;28;20040;-58
2023/07/26 08:35:59;;;;;;;0.00;0.00;;;;;;;;;;5078205;28;20085;-58
2023/07/26 08:38:26;;;;;;;0.00;0.00;;;;;;;;;;5078765;28;20043;-58
2023/07/26 08:40:53;;;;;;;0.00;0.00;;;;;;;;;;5080434;28;20032;-58
2023/07/26 08:43:20;;;;;;;0.00;0.00;;;;;;;;;;5078647;28;20532;-58
2023/07/26 08:45:47;;;;;;;0.00;0.00;;;;;;;;;;5078406;28;20044;-58
2023/07/26 08:48:14;;;;;;;0.00;0.00;;;;;;;;;;5080412;28;20044;-58
2023/07/26 08:50:45;;;;;;;0.00;0.00;;;;;;;;;;5076515;28;20515;-58
2023/07/26 08:53:12;;;;;;;0.10;0.10;;;;;;;;;;5076435;28;20048;-58
2023/07/26 08:55:39;;;;;;;0.00;0.00;;;;;;;;;;5059105;28;20048;-58
2023/07/26 08:58:06;;;;;;;0.00;0.00;;;;;;;;;;5078657;28;20550;-58
2023/07/26 09:00:34;;;;;;;0.03;0.03;;;;;;;;;;5072667;28;20063;-58
2023/07/26 09:03:02;;;;;;;0.00;0.00;;;;;;;;;;5077587;28;20068;-58
2023/07/26 09:05:29;;;;;;;0.00;0.00;;;;;;;;;;5077870;28;20048;-58
2023/07/26 09:07:58;;;;;;;0.00;0.00;;;;;;;;;;5077332;28;20064;-57
2023/07/26 09:10:26;;;;;;;0.00;0.00;;;;;;;;;;5079504;28;20048;-58
2023/07/26 09:12:53;;;;;;;0.00;0.00;;;;;;;;;;5075586;28;20055;-57
2023/07/26 09:15:20;;;;;;;0.10;0.10;;;;;;;;;;5078284;28;20375;-58
2023/07/26 09:17:48;;;;;;;0.00;0.00;;;;;;;;;;5074769;28;20533;-58
2023/07/26 09:20:22;;;;;;;0.00;0.00;;;;;;;;;;5075816;28;21985;-58
2023/07/26 09:22:49;;;;;;;0.10;0.10;;;;;;;;;;5073912;28;20068;-58
2023/07/26 09:25:22;;;;;;;0.10;0.10;;;;;;;;;;5074964;28;20062;-58
2023/07/26 09:27:55;;;;;;;0.10;0.10;;;;;;;;;;5077518;28;20553;-58
2023/07/26 09:30:24;;;;;;;0.10;0.10;;;;;;;;;;5076538;28;20048;-58
2023/07/26 09:32:51;;;;;;;0.00;0.00;;;;;;;;;;5074614;28;20089;-58
2023/07/26 09:35:18;;;;;;;0.10;0.10;;;;;;;;;;5072317;28;20540;-58
2023/07/26 09:37:45;;;;;;;0.00;0.00;;;;;;;;;;5080020;28;20048;-58
2023/07/26 09:40:13;;;;;;;0.10;0.10;;;;;;;;;;5077064;28;20059;-58
2023/07/26 09:42:45;;;;;;;0.00;0.00;;;;;;;;;;5073740;28;20494;-58
2023/07/26 09:45:16;;;;;;;0.08;0.08;;;;;;;;;;5077490;28;20054;-58
2023/07/26 09:47:43;;;;;;;0.00;0.00;;;;;;;;;;5080226;28;20114;-58
2023/07/26 09:50:26;;;;;;;0.00;0.00;;;;;;;;;;5075916;28;20044;-58
2023/07/26 09:52:55;;;;;;;0.00;0.00;;;;;;;;;;5079237;28;20154;-58
2023/07/26 09:55:23;;;;;;;0.00;0.00;;;;;;;;;;5078549;28;20047;-58
2023/07/26 09:57:51;;;;;;;0.00;0.00;;;;;;;;;;5078843;28;20438;-58
2023/07/26 10:00:18;;;;;;;0.00;0.00;;;;;;;;;;5076483;28;20063;-59
2023/07/26 10:02:46;;;;;;;0.00;0.00;;;;;;;;;;5079234;28;20041;-57
2023/07/26 10:05:13;;;;;;;0.00;0.00;;;;;;;;;;5077748;28;20048;-56
2023/07/26 10:07:40;;;;;;;0.00;0.00;;;;;;;;;;5073881;28;20043;-59
2023/07/26 10:10:07;;;;;;;0.00;0.00;;;;;;;;;;5076960;28;20135;-57
2023/07/26 10:12:34;;;;;;;0.00;0.00;;;;;;;;;;5076868;28;20046;-57
2023/07/26 10:15:05;;;;;;;0.00;0.00;;;;;;;;;;5079338;28;20048;-58
2023/07/26 10:17:32;;;;;;;0.00;0.00;;;;;;;;;;5076975;28;20051;-57
2023/07/26 10:19:59;;;;;;;0.00;0.00;;;;;;;;;;5077169;28;20044;-57
2023/07/26 10:22:26;;;;;;;0.00;0.00;;;;;;;;;;5075764;28;20386;-58
2023/07/26 10:24:53;;;;;;;0.00;0.00;;;;;;;;;;5077166;28;20072;-57
2023/07/26 10:27:21;;;;;;;0.00;0.00;;;;;;;;;;5078855;28;20042;-57
2023/07/26 10:29:48;;;;;;;0.00;0.00;;;;;;;;;;5074740;28;20048;-59
2023/07/26 10:32:16;;;;;;;0.00;0.00;;;;;;;;;;5075406;28;20147;-58
2023/07/26 10:34:43;;;;;;;0.00;0.00;;;;;;;;;;5076529;28;20131;-59
2023/07/26 10:37:14;;;;;;;0.00;0.00;;;;;;;;;;5076908;28;20043;-58
2023/07/26 10:39:41;;;;;;;0.00;0.00;;;;;;;;;;5081955;28;20071;-57
2023/07/26 10:42:08;;;;;;;0.00;0.00;;;;;;;;;;5079478;28;20040;-57
2023/07/26 10:44:40;;;;;;;0.00;0.00;;;;;;;;;;5079847;28;20062;-59
2023/07/26 10:47:07;;;;;;;0.00;0.00;;;;;;;;;;5080265;28;20043;-58
2023/07/26 10:49:37;;;;;;;0.00;0.00;;;;;;;;;;5066647;28;20051;-58
2023/07/26 10:52:05;;;;;;;0.00;0.00;;;;;;;;;;5078951;28;20371;-58
2023/07/26 10:54:33;;;;;;;0.00;0.00;;;;;;;;;;5077891;28;20036;-58
2023/07/26 10:57:10;;;;;;;0.00;0.00;;;;;;;;;;5078154;28;20068;-60
2023/07/26 10:59:37;;;;;;;0.00;0.00;;;;;;;;;;5081173;28;20047;-58
2023/07/26 11:02:05;;;;;;;0.00;0.00;;;;;;;;;;5076677;28;20130;-59
2023/07/26 11:04:37;;;;;;;0.00;0.00;;;;;;;;;;5077355;28;20040;-57
2023/07/26 11:07:04;;;;;;;0.00;0.00;;;;;;;;;;5079774;28;20059;-57
2023/07/26 11:09:31;;;;;;;0.00;0.00;;;;;;;;;;5079184;28;20040;-56
2023/07/26 11:11:59;;;;;;;0.00;0.00;;;;;;;;;;5079696;28;20552;-59
2023/07/26 11:14:26;;;;;;;0.00;0.00;;;;;;;;;;5081392;28;20839;-59
2023/07/26 11:16:58;;;;;;;0.00;0.00;;;;;;;;;;5083205;28;20139;-57
2023/07/26 11:19:25;;;;;;;0.00;0.00;;;;;;;;;;5077834;28;20127;-59
2023/07/26 11:21:53;;;;;;;0.00;0.00;;;;;;;;;;5082143;28;20104;-59
2023/07/26 11:24:27;;;;;;;0.00;0.00;;;;;;;;;;5074930;28;20059;-57
2023/07/26 11:26:54;;;;;;;0.00;0.00;;;;;;;;;;5080141;28;20127;-57
2023/07/26 11:29:24;;;;;;;0.00;0.00;;;;;;;;;;5082118;28;20044;-57
2023/07/26 11:31:51;;;;;;;0.00;0.00;;;;;;;;;;5081168;28;20036;-57
2023/07/26 11:34:19;;;;;;;0.00;0.00;;;;;;;;;;5078946;28;20040;-57
2023/07/26 11:36:46;;;;;;;0.00;0.00;;;;;;;;;;5080018;28;20041;-58
2023/07/26 11:39:24;;;;;;;0.00;0.00;;;;;;;;;;5081017;28;20044;-58
2023/07/26 11:41:51;;;;;;;0.00;0.00;;;;;;;;;;5078953;28;20821;-58
2023/07/26 11:44:20;;;;;;;0.00;0.00;;;;;;;;;;5074094;28;20044;-58
2023/07/26 11:46:47;;;;;;;0.00;0.00;;;;;;;;;;5078721;28;20437;-57
2023/07/26 11:49:20;;;;;;;0.00;0.00;;;;;;;;;;5077367;28;20547;-58
2023/07/26 11:51:50;;;;;;;0.00;0.00;;;;;;;;;;5077747;28;20111;-58
2023/07/26 11:54:19;;;;;;;0.00;0.00;;;;;;;;;;5076905;28;20063;-58
2023/07/26 11:56:48;;;;;;;0.00;0.00;;;;;;;;;;5077529;28;20054;-58
2023/07/26 11:59:16;;;;;;;0.00;0.00;;;;;;;;;;5078077;28;20091;-58
2023/07/26 12:01:43;;;;;;;0.00;0.00;;;;;;;;;;5078819;28;20126;-57
2023/07/26 12:04:11;;;;;;;0.00;0.00;;;;;;;;;;5071690;28;20051;-58
2023/07/26 12:06:40;;;;;;;0.00;0.00;;;;;;;;;;5079361;28;20440;-60
2023/07/26 12:09:09;;;;;;;0.00;0.00;;;;;;;;;;5077593;28;20059;-58
2023/07/26 12:11:37;;;;;;;0.00;0.00;;;;;;;;;;5076993;28;20036;-59
2023/07/26 12:14:06;;;;;;;0.00;0.00;;;;;;;;;;5077059;28;20048;-58
2023/07/26 12:16:34;;;;;;;0.00;0.00;;;;;;;;;;5079665;28;20053;-58
2023/07/26 12:19:02;;;;;;;0.00;0.00;;;;;;;;;;5078305;28;20077;-58
2023/07/26 12:21:29;;;;;;;0.10;0.00;;;;;;;;;;5078391;28;20052;-58
2023/07/26 12:23:57;;;;;;;0.00;0.00;;;;;;;;;;5080234;28;20044;-58
2023/07/26 12:26:24;;;;;;;0.00;0.00;;;;;;;;;;5079055;28;20055;-58
2023/07/26 12:28:54;;;;;;;0.00;0.00;;;;;;;;;;5075130;28;20064;-58
2023/07/26 12:31:23;;;;;;;0.20;0.10;;;;;;;;;;5079106;28;20129;-58
2023/07/26 12:33:54;;;;;;;0.00;0.00;;;;;;;;;;5076447;28;20502;-60
2023/07/26 12:36:21;;;;;;;0.00;0.00;;;;;;;;;;5079233;28;20029;-58
2023/07/26 12:38:49;;;;;;;0.00;0.00;;;;;;;;;;5080356;28;20066;-58
2023/07/26 12:41:16;;;;;;;0.00;0.00;;;;;;;;;;5079465;28;20123;-58
2023/07/26 12:43:43;;;;;;;0.00;0.00;;;;;;;;;;5079569;28;20086;-59
2023/07/26 12:46:11;;;;;;;0.00;0.00;;;;;;;;;;5074422;28;20112;-59
2023/07/26 12:48:39;;;;;;;0.00;0.00;;;;;;;;;;5076630;28;20434;-59
2023/07/26 12:51:06;;;;;;;0.00;0.00;;;;;;;;;;5074686;28;20048;-59
2023/07/26 12:53:34;;;;;;;0.00;0.00;;;;;;;;;;5077205;28;20056;-59
2023/07/26 12:56:01;;;;;;;0.00;0.00;;;;;;;;;;5078367;28;20068;-59
2023/07/26 12:58:28;;;;;;;0.00;0.00;;;;;;;;;;5077508;28;20048;-58
2023/07/26 13:00:55;;;;;;;0.00;0.00;;;;;;;;;;5076444;28;20140;-58
2023/07/26 13:03:22;;;;;;;0.00;0.00;;;;;;;;;;5079352;28;20132;-58
2023/07/26 13:05:51;;;;;;;0.00;0.00;;;;;;;;;;5079155;28;20135;-58
2023/07/26 13:08:18;;;;;;;0.00;0.00;;;;;;;;;;5074264;28;20044;-58
2023/07/26 13:10:45;;;;;;;0.00;0.00;;;;;;;;;;5076693;28;20047;-58
2023/07/26 13:13:12;;;;;;;0.00;0.00;;;;;;;;;;5076301;28;20117;-58
2023/07/26 13:15:40;;;;;;;0.00;0.00;;;;;;;;;;5080185;28;20054;-58
2023/07/26 13:18:07;;;;;;;0.00;0.00;;;;;;;;;;5076940;28;20925;-58
2023/07/26 13:20:36;;;;;;;0.00;0.00;;;;;;;;;;5078605;28;20059;-58
2023/07/26 13:23:04;;;;;;;0.00;0.00;;;;;;;;;;5078956;28;20044;-58
2023/07/26 13:25:32;;;;;;;0.00;0.00;;;;;;;;;;5078704;28;20428;-59
2023/07/26 13:27:59;;;;;;;0.00;0.00;;;;;;;;;;5076459;28;20587;-58
2023/07/26 13:30:26;;;;;;;0.00;0.00;;;;;;;;;;5073184;28;20139;-59
2023/07/26 13:32:54;;;;;;;0.00;0.00;;;;;;;;;;5074805;28;20072;-59
2023/07/26 13:35:21;;;;;;;0.00;0.00;;;;;;;;;;5077058;28;20440;-58
2023/07/26 13:37:48;;;;;;;0.00;0.00;;;;;;;;;;5077869;28;20050;-58
2023/07/26 13:40:17;;;;;;;0.00;0.00;;;;;;;;;;5075681;28;20135;-59
2023/07/26 13:42:44;;;;;;;0.00;0.00;;;;;;;;;;5076957;28;20051;-58
2023/07/26 13:45:11;;;;;;;0.00;0.00;;;;;;;;;;5078641;28;20036;-60
2023/07/26 13:47:38;;;;;;;0.00;0.00;;;;;;;;;;5075953;28;20037;-59
2023/07/26 13:50:06;;;;;;;0.00;0.00;;;;;;;;;;5079024;28;20075;-59
2023/07/26 13:52:33;;;;;;;0.00;0.00;;;;;;;;;;5080608;28;20393;-59
2023/07/26 13:55:00;;;;;;;0.00;0.00;;;;;;;;;;5077213;28;20086;-59
2023/07/26 13:57:28;;;;;;;0.00;0.00;;;;;;;;;;5079794;28;20048;-59
2023/07/26 13:59:55;;;;;;;0.00;0.00;;;;;;;;;;5077962;28;20051;-59
2023/07/26 14:02:23;;;;;;;0.00;0.00;;;;;;;;;;5079713;28;20544;-59
2023/07/26 14:04:50;;;;;;;0.10;0.10;;;;;;;;;;5076693;28;20124;-59
2023/07/26 14:07:17;;;;;;;0.00;0.00;;;;;;;;;;5078086;28;20047;-59
2023/07/26 14:09:44;;;;;;;0.00;0.00;;;;;;;;;;5078074;28;20062;-59
2023/07/26 14:12:11;;;;;;;0.00;0.00;;;;;;;;;;5074799;28;20094;-59
2023/07/26 14:14:40;;;;;;;0.00;0.00;;;;;;;;;;5082629;28;20549;-59
2023/07/26 14:17:07;;;;;;;0.00;0.00;;;;;;;;;;5081546;28;20544;-59
2023/07/26 14:19:34;;;;;;;0.00;0.00;;;;;;;;;;5082518;28;20037;-59
2023/07/26 14:22:01;;;;;;;0.05;0.05;;;;;;;;;;5079936;28;20524;-59
2023/07/26 14:24:29;;;;;;;0.00;0.00;;;;;;;;;;5082595;28;20064;-59
2023/07/26 14:26:56;;;;;;;0.00;0.00;;;;;;;;;;5080348;28;20036;-59
2023/07/26 14:29:24;;;;;;;0.00;0.00;;;;;;;;;;5078491;28;20668;-59
2023/07/26 14:31:55;;;;;;;0.00;0.00;;;;;;;;;;5083252;28;20801;-59
2023/07/26 14:34:22;;;;;;;0.00;0.00;;;;;;;;;;5081757;28;20036;-59
2023/07/26 14:36:50;;;;;;;0.03;0.03;;;;;;;;;;5077809;28;20066;-58
2023/07/26 14:39:17;;;;;;;0.10;0.10;;;;;;;;;;5076040;28;20494;-58
2023/07/26 14:41:44;;;;;;;0.00;0.00;;;;;;;;;;5081943;28;20066;-58
2023/07/26 14:44:11;;;;;;;0.00;0.00;;;;;;;;;;5076162;28;20159;-59
2023/07/26 14:46:38;;;;;;;0.10;0.10;;;;;;;;;;5078159;28;20047;-58